createdAt,value
2017-11-24T00:01:56.348Z,11.60
2017-11-24T00:04:23.884Z,7.15
2017-11-24T00:06:51.486Z,18.15
2017-11-24T00:09:19.776Z,5.60
2017-11-24T00:11:47.336Z,6.53
2017-11-24T00:14:17.284Z,13.23
2017-11-24T00:16:44.807Z,10.57
2017-11-24T00:19:12.397Z,10.70
2017-11-24T00:21:39.997Z,9.10
2017-11-24T00:24:07.533Z,8.83
2017-11-24T00:26:35.048Z,7.63
2017-11-24T00:29:02.610Z,6.43
2017-11-24T00:31:30.146Z,5.25
2017-11-24T00:33:58.450Z,5.50
2017-11-24T00:36:25.996Z,6.20
2017-11-24T00:38:53.531Z,12.83
2017-11-24T00:41:21.841Z,6.28
2017-11-24T00:43:49.644Z,7.17
2017-11-24T00:46:17.944Z,5.50
2017-11-24T00:48:46.258Z,5.55
2017-11-24T00:51:15.527Z,4.55
2017-11-24T00:53:43.828Z,5.10
2017-11-24T00:56:11.356Z,6.00
2017-11-24T00:58:38.958Z,6.00
2017-11-24T01:01:07.712Z,5.60
2017-11-24T01:03:36.005Z,4.83
2017-11-24T01:06:03.608Z,8.00
2017-11-24T01:08:31.149Z,5.30
2017-11-24T01:10:58.680Z,10.27
2017-11-24T01:13:26.241Z,7.20
2017-11-24T01:15:53.772Z,5.43
2017-11-24T01:18:22.112Z,4.60
2017-11-24T01:20:49.658Z,5.93
2017-11-24T01:23:17.177Z,5.83
2017-11-24T01:25:45.475Z,4.40
2017-11-24T01:28:23.685Z,10.65
2017-11-24T01:32:11.069Z,7.40
2017-11-24T01:34:39.423Z,7.50
2017-11-24T01:37:06.957Z,10.17
2017-11-24T01:39:34.540Z,5.97
2017-11-24T01:42:02.097Z,6.83
2017-11-24T01:44:29.634Z,4.80
2017-11-24T01:46:57.765Z,6.10
2017-11-24T01:49:26.116Z,7.10
2017-11-24T01:51:53.666Z,5.53
2017-11-24T01:54:21.194Z,10.03
2017-11-24T01:56:48.752Z,6.33
2017-11-24T01:59:16.456Z,5.93
2017-11-24T02:01:45.007Z,5.20
2017-11-24T02:04:12.568Z,5.70
2017-11-24T02:06:40.101Z,4.90
2017-11-24T02:09:07.741Z,9.50
2017-11-24T02:11:36.109Z,6.50
2017-11-24T02:14:03.658Z,5.13
2017-11-24T02:16:31.202Z,4.90
2017-11-24T02:18:58.851Z,4.93
2017-11-24T02:21:26.388Z,4.68
2017-11-24T02:23:53.917Z,5.43
2017-11-24T02:26:22.252Z,5.05
2017-11-24T02:28:49.814Z,4.80
2017-11-24T02:31:17.358Z,6.63
2017-11-24T02:33:44.936Z,10.63
2017-11-24T02:36:12.506Z,11.35
2017-11-24T02:38:40.096Z,9.97
2017-11-24T02:41:08.419Z,5.23
2017-11-24T02:43:35.956Z,5.90
2017-11-24T02:46:03.525Z,9.43
2017-11-24T02:48:31.128Z,7.40
2017-11-24T02:50:58.707Z,10.73
2017-11-24T02:53:26.288Z,9.23
2017-11-24T02:55:53.910Z,7.93
2017-11-24T02:58:21.478Z,5.60
2017-11-24T03:00:49.050Z,6.27
2017-11-24T03:03:17.494Z,4.43
2017-11-24T03:05:45.024Z,6.73
2017-11-24T03:08:12.568Z,7.05
2017-11-24T03:10:40.120Z,4.73
2017-11-24T03:13:07.676Z,5.57
2017-11-24T03:15:35.209Z,7.00
2017-11-24T03:18:03.553Z,6.33
2017-11-24T03:20:31.072Z,5.60
2017-11-24T03:22:58.626Z,5.80
2017-11-24T03:25:26.183Z,5.07
2017-11-24T03:27:53.708Z,5.23
2017-11-24T03:30:21.226Z,5.33
2017-11-24T03:32:48.773Z,6.67
2017-11-24T03:35:16.464Z,4.83
2017-11-24T03:37:43.993Z,9.33
2017-11-24T03:40:11.644Z,8.30
2017-11-24T03:42:39.181Z,7.27
2017-11-24T03:45:06.709Z,7.43
2017-11-24T03:47:34.264Z,13.13
2017-11-24T03:50:01.822Z,7.37
2017-11-24T03:52:29.356Z,13.30
2017-11-24T03:54:56.920Z,8.00
2017-11-24T03:57:24.457Z,8.73
2017-11-24T03:59:51.987Z,10.17
2017-11-24T04:02:19.573Z,7.82
2017-11-24T04:04:47.558Z,7.13
2017-11-24T04:07:16.466Z,5.50
2017-11-24T04:09:44.054Z,6.10
2017-11-24T04:12:11.585Z,6.13
2017-11-24T04:14:39.128Z,13.50
2017-11-24T04:17:06.685Z,6.83
2017-11-24T04:19:34.217Z,7.53
2017-11-24T04:22:02.506Z,7.90
2017-11-24T04:24:30.097Z,10.33
2017-11-24T04:26:57.653Z,8.33
2017-11-24T04:29:25.181Z,8.47
2017-11-24T04:31:52.762Z,8.00
2017-11-24T04:34:20.301Z,6.07
2017-11-24T04:36:47.842Z,8.70
2017-11-24T04:39:16.496Z,11.93
2017-11-24T04:41:44.041Z,5.00
2017-11-24T04:44:11.625Z,7.97
2017-11-24T04:46:40.013Z,9.73
2017-11-24T04:49:08.308Z,14.70
2017-11-24T04:51:35.836Z,10.30
2017-11-24T04:54:03.431Z,5.60
2017-11-24T04:56:31.002Z,8.37
2017-11-24T04:58:58.532Z,6.20
2017-11-24T05:01:26.862Z,5.30
2017-11-24T05:03:54.423Z,7.85
2017-11-24T05:06:23.186Z,7.22
2017-11-24T05:08:50.777Z,7.90
2017-11-24T05:11:18.333Z,5.20
2017-11-24T05:13:46.152Z,6.27
2017-11-24T05:16:19.773Z,5.57
2017-11-24T05:21:21.726Z,15.47
2017-11-24T05:23:49.280Z,12.80
2017-11-24T05:26:16.842Z,22.63
2017-11-24T05:28:45.238Z,51.07
2017-11-24T05:31:13.701Z,28.30
2017-11-24T05:33:41.253Z,9.73
2017-11-24T05:36:09.577Z,21.57
2017-11-24T05:38:37.125Z,11.80
2017-11-24T05:41:04.668Z,7.87
2017-11-24T05:43:32.269Z,8.00
2017-11-24T05:45:59.812Z,10.23
2017-11-24T05:48:27.346Z,18.93
2017-11-24T05:50:54.955Z,8.37
2017-11-24T05:53:22.509Z,11.66
2017-11-24T05:55:50.074Z,5.37
2017-11-24T05:58:17.668Z,5.23
2017-11-24T06:00:45.204Z,18.30
2017-11-24T06:03:14.557Z,10.43
2017-11-24T06:05:42.213Z,6.27
2017-11-24T06:08:10.469Z,8.13
2017-11-24T06:10:38.441Z,9.83
2017-11-24T06:13:06.754Z,11.00
2017-11-24T06:15:34.408Z,9.40
2017-11-24T06:18:01.953Z,12.43
2017-11-24T06:20:29.580Z,9.02
2017-11-24T06:22:57.893Z,8.20
2017-11-24T06:25:25.430Z,6.22
2017-11-24T06:27:53.013Z,17.43
2017-11-24T06:30:20.550Z,12.60
2017-11-24T06:32:48.133Z,9.03
2017-11-24T06:35:16.560Z,8.90
2017-11-24T06:37:44.860Z,12.60
2017-11-24T06:40:12.395Z,9.93
2017-11-24T06:42:40.761Z,14.87
2017-11-24T06:45:08.304Z,9.83
2017-11-24T06:47:35.852Z,12.40
2017-11-24T06:50:03.412Z,11.90
2017-11-24T06:52:30.940Z,9.70
2017-11-24T06:54:58.468Z,13.77
2017-11-24T06:57:26.068Z,14.00
2017-11-24T06:59:53.648Z,9.67
2017-11-24T07:02:21.944Z,11.33
2017-11-24T07:04:49.524Z,8.85
2017-11-24T07:07:17.796Z,9.70
2017-11-24T07:09:45.885Z,25.77
2017-11-24T07:12:19.486Z,6.47
2017-11-24T07:22:52.068Z,15.73
2017-11-24T07:25:19.583Z,8.50
2017-11-24T07:27:47.226Z,15.10
2017-11-24T07:30:16.449Z,9.23
2017-11-24T07:32:43.982Z,12.07
2017-11-24T07:35:11.511Z,9.67
2017-11-24T07:37:39.063Z,9.23
2017-11-24T07:40:06.588Z,10.87
2017-11-24T07:42:34.142Z,13.50
2017-11-24T07:45:01.744Z,10.53
2017-11-24T07:47:29.283Z,11.37
2017-11-24T07:49:56.838Z,11.77
2017-11-24T07:52:24.405Z,16.67
2017-11-24T07:54:51.945Z,23.00
2017-11-24T07:57:19.485Z,11.07
2017-11-24T07:59:47.481Z,8.97
2017-11-24T08:02:16.493Z,18.12
2017-11-24T08:04:44.087Z,17.40
2017-11-24T08:07:12.453Z,14.00
2017-11-24T08:09:39.981Z,12.43
2017-11-24T08:12:07.791Z,10.27
2017-11-24T08:14:36.130Z,12.93
2017-11-24T08:17:03.665Z,11.93
2017-11-24T08:19:31.196Z,13.20
2017-11-24T08:21:58.754Z,13.30
2017-11-24T08:24:26.294Z,15.73
2017-11-24T08:26:53.833Z,15.57
2017-11-24T08:29:21.436Z,6.43
2017-11-24T08:31:48.983Z,6.27
2017-11-24T08:34:16.522Z,9.90
2017-11-24T08:36:44.878Z,19.03
2017-11-24T08:39:12.506Z,9.87
2017-11-24T08:41:40.037Z,24.33
2017-11-24T08:44:08.995Z,11.00
2017-11-24T08:46:42.141Z,12.73
2017-11-24T08:49:15.380Z,15.23
2017-11-24T08:51:42.926Z,16.70
2017-11-24T08:54:10.498Z,8.15
2017-11-24T08:56:38.057Z,15.80
2017-11-24T08:59:05.638Z,16.23
2017-11-24T09:01:33.950Z,11.88
2017-11-24T09:04:01.522Z,10.20
2017-11-24T09:06:29.056Z,9.70
2017-11-24T09:08:56.644Z,20.43
2017-11-24T09:11:25.459Z,18.73
2017-11-24T09:13:53.150Z,19.83
2017-11-24T09:16:21.017Z,15.25
2017-11-24T09:18:48.915Z,12.13
2017-11-24T09:21:17.264Z,9.60
2017-11-24T09:23:44.800Z,14.53
2017-11-24T09:26:12.360Z,7.17
2017-11-24T09:28:39.943Z,7.53
2017-11-24T09:31:07.563Z,17.52
2017-11-24T09:33:35.189Z,11.73
2017-11-24T09:36:02.727Z,6.07
2017-11-24T09:38:30.265Z,6.97
2017-11-24T09:40:57.818Z,7.60
2017-11-24T09:43:26.117Z,17.77
2017-11-24T09:45:53.647Z,6.07
2017-11-24T09:48:22.104Z,6.00
2017-11-24T09:50:49.660Z,12.93
2017-11-24T09:53:17.192Z,15.73
2017-11-24T09:55:44.844Z,9.00
2017-11-24T09:58:12.379Z,7.33
2017-11-24T10:00:40.893Z,4.93
2017-11-24T10:03:08.503Z,6.97
2017-11-24T10:05:36.039Z,6.87
2017-11-24T10:08:03.601Z,13.63
2017-11-24T10:10:31.173Z,8.93
2017-11-24T10:12:58.706Z,6.97
2017-11-24T10:15:26.417Z,10.30
2017-11-24T10:17:54.850Z,5.33
2017-11-24T10:20:22.392Z,16.37
2017-11-24T10:22:49.925Z,5.53
2017-11-24T10:25:17.491Z,8.57
2017-11-24T10:27:45.047Z,5.83
2017-11-24T10:30:14.276Z,7.70
2017-11-24T10:32:41.837Z,13.03
2017-11-24T10:35:09.369Z,6.13
2017-11-24T10:37:36.935Z,6.93
2017-11-24T10:40:04.916Z,7.20
2017-11-24T10:42:32.453Z,5.70
2017-11-24T10:45:00.006Z,6.60
2017-11-24T10:47:27.796Z,6.43
2017-11-24T10:49:55.336Z,12.90
2017-11-24T10:52:22.870Z,9.73
2017-11-24T10:54:51.195Z,5.57
2017-11-24T10:57:18.732Z,8.63
2017-11-24T10:59:46.260Z,14.70
2017-11-24T11:02:25.892Z,9.63
2017-11-24T11:08:57.636Z,5.63
2017-11-24T11:11:25.957Z,8.25
2017-11-24T11:13:53.595Z,5.40
2017-11-24T11:16:21.435Z,7.07
2017-11-24T11:18:48.972Z,9.80
2017-11-24T11:21:16.500Z,6.22
2017-11-24T11:23:44.845Z,7.80
2017-11-24T11:26:12.395Z,5.63
2017-11-24T11:28:40.780Z,6.60
2017-11-24T11:31:08.333Z,8.50
2017-11-24T11:33:35.958Z,5.60
2017-11-24T11:36:03.635Z,13.13
2017-11-24T11:38:31.190Z,8.93
2017-11-24T11:40:58.877Z,5.60
2017-11-24T11:43:26.409Z,6.45
2017-11-24T11:45:53.989Z,8.03
2017-11-24T11:48:21.537Z,11.23
2017-11-24T11:50:49.121Z,11.40
2017-11-24T11:53:16.685Z,8.63
2017-11-24T11:55:44.213Z,18.63
2017-11-24T11:58:11.751Z,8.73
2017-11-24T12:00:39.310Z,9.83
2017-11-24T12:03:06.840Z,10.73
2017-11-24T12:05:35.139Z,11.63
2017-11-24T12:08:02.736Z,9.40
2017-11-24T12:10:30.282Z,8.90
2017-11-24T12:12:57.821Z,8.57
2017-11-24T12:15:25.402Z,7.50
2017-11-24T12:17:53.333Z,7.80
2017-11-24T12:20:20.872Z,10.97
2017-11-24T12:22:49.219Z,5.95
2017-11-24T12:25:17.521Z,4.23
2017-11-24T12:27:45.838Z,10.73
2017-11-24T12:30:14.557Z,13.27
2017-11-24T12:40:22.144Z,6.20
2017-11-24T12:42:50.462Z,9.57
2017-11-24T12:45:18.042Z,11.83
2017-11-24T12:47:45.622Z,7.20
2017-11-24T12:50:15.386Z,13.85
2017-11-24T12:52:42.921Z,3.70
2017-11-24T12:55:10.499Z,16.23
2017-11-24T12:57:38.052Z,17.97
2017-11-24T13:00:05.664Z,4.20
2017-11-24T13:02:33.227Z,8.43
2017-11-24T13:05:01.593Z,7.40
2017-11-24T13:07:29.149Z,9.67
2017-11-24T13:09:56.885Z,10.45
2017-11-24T13:12:24.430Z,13.88
2017-11-24T13:14:52.000Z,6.27
2017-11-24T13:17:19.593Z,10.13
2017-11-24T13:19:47.508Z,8.23
2017-11-24T13:22:21.538Z,11.48
2017-11-24T13:24:49.135Z,30.63
2017-11-24T13:27:16.941Z,9.57
2017-11-24T13:29:44.485Z,14.00
2017-11-24T13:32:12.072Z,22.40
2017-11-24T13:34:39.618Z,12.00
2017-11-24T13:37:07.176Z,8.00
2017-11-24T13:39:34.756Z,22.08
2017-11-24T13:42:02.315Z,17.87
2017-11-24T13:44:30.229Z,18.73
2017-11-24T13:46:57.817Z,14.70
2017-11-24T13:49:25.389Z,11.00
2017-11-24T13:51:52.956Z,16.00
2017-11-24T13:54:20.620Z,20.93
2017-11-24T13:56:53.509Z,8.33
2017-11-24T13:59:21.197Z,9.63
2017-11-24T14:01:48.761Z,9.23
2017-11-24T14:04:16.421Z,13.20
2017-11-24T14:06:43.985Z,9.20
2017-11-24T14:09:11.517Z,8.02
2017-11-24T14:11:39.065Z,8.33
2017-11-24T14:14:06.661Z,15.40
2017-11-24T14:16:34.218Z,25.93
2017-11-24T14:19:01.827Z,12.83
2017-11-24T14:21:30.010Z,19.50
2017-11-24T14:23:57.601Z,18.20
2017-11-24T14:26:25.152Z,14.60
2017-11-24T14:28:52.754Z,15.70
2017-11-24T14:31:20.328Z,19.80
2017-11-24T14:33:47.885Z,16.90
2017-11-24T14:36:16.345Z,15.60
2017-11-24T14:38:43.880Z,16.93
2017-11-24T14:41:11.445Z,14.73
2017-11-24T14:43:39.016Z,29.30
2017-11-24T14:46:06.575Z,27.15
2017-11-24T14:48:34.129Z,15.93
2017-11-24T14:51:01.727Z,15.90
2017-11-24T14:53:29.304Z,13.67
2017-11-24T14:55:56.836Z,28.87
2017-11-24T14:58:24.436Z,21.37
2017-11-24T15:00:51.984Z,28.03
2017-11-24T15:03:19.558Z,37.50
2017-11-24T15:05:47.137Z,39.73
2017-11-24T15:08:16.523Z,31.40
2017-11-24T15:10:44.101Z,26.30
2017-11-24T15:13:12.981Z,15.93
2017-11-24T15:15:40.523Z,23.77
2017-11-24T15:18:08.201Z,19.60
2017-11-24T15:20:35.968Z,10.60
2017-11-24T15:23:03.507Z,18.87
2017-11-24T15:25:31.514Z,17.27
2017-11-24T15:27:59.112Z,13.23
2017-11-24T15:30:26.690Z,16.90
2017-11-24T15:32:54.264Z,16.73
2017-11-24T15:35:21.875Z,14.40
2017-11-24T15:37:50.148Z,29.17
2017-11-24T15:40:18.013Z,15.23
2017-11-24T15:42:46.659Z,13.23
2017-11-24T15:45:15.721Z,15.05
2017-11-24T15:47:43.262Z,12.20
2017-11-24T15:50:10.832Z,9.93
2017-11-24T15:52:38.369Z,11.40
2017-11-24T15:55:06.676Z,11.43
2017-11-24T15:57:34.296Z,25.23
2017-11-24T16:00:02.615Z,12.07
2017-11-24T16:02:30.167Z,14.77
2017-11-24T16:04:57.801Z,12.23
2017-11-24T16:07:25.593Z,12.23
2017-11-24T16:09:53.160Z,14.90
2017-11-24T16:12:20.762Z,24.93
2017-11-24T16:14:48.372Z,12.03
2017-11-24T16:17:16.449Z,8.67
2017-11-24T16:19:44.017Z,10.90
2017-11-24T16:22:12.321Z,14.18
2017-11-24T16:24:40.323Z,9.27
2017-11-24T16:27:07.937Z,12.60
2017-11-24T16:29:35.494Z,27.43
2017-11-24T16:32:03.032Z,17.17
2017-11-24T16:34:30.604Z,14.03
2017-11-24T16:36:58.143Z,11.67
2017-11-24T16:39:25.697Z,17.47
2017-11-24T16:41:53.290Z,19.73
2017-11-24T16:44:21.732Z,16.00
2017-11-24T16:46:49.333Z,37.27
2017-11-24T16:49:17.386Z,29.73
2017-11-24T16:51:44.933Z,23.70
2017-11-24T16:54:12.488Z,32.63
2017-11-24T16:56:40.212Z,29.70
2017-11-24T16:59:07.753Z,32.23
2017-11-24T17:01:35.288Z,31.83
2017-11-24T17:04:02.852Z,27.47
2017-11-24T17:06:30.393Z,26.48
2017-11-24T17:08:57.943Z,29.13
2017-11-24T17:11:25.538Z,22.50
2017-11-24T17:13:53.104Z,21.67
2017-11-24T17:16:20.646Z,31.92
2017-11-24T17:18:48.222Z,30.00
2017-11-24T17:21:16.516Z,26.77
2017-11-24T17:23:44.821Z,20.00
2017-11-24T17:26:12.644Z,14.20
2017-11-24T17:28:40.176Z,24.50
2017-11-24T17:31:07.720Z,38.57
2017-11-24T17:33:35.313Z,36.53
2017-11-24T17:36:02.852Z,44.83
2017-11-24T17:38:30.787Z,29.10
2017-11-24T17:40:58.378Z,27.53
2017-11-24T17:43:25.921Z,27.53
2017-11-24T17:45:53.457Z,26.67
2017-11-24T17:48:21.056Z,29.23
2017-11-24T17:50:48.652Z,20.77
2017-11-24T17:53:16.511Z,42.77
2017-11-24T17:55:44.109Z,56.13
2017-11-24T17:58:11.655Z,49.43
2017-11-24T18:00:39.228Z,54.87
2017-11-24T18:03:06.824Z,23.10
2017-11-24T18:05:34.378Z,20.20
2017-11-24T18:08:01.909Z,20.20
2017-11-24T18:10:29.494Z,32.60
2017-11-24T18:12:57.051Z,18.70
2017-11-24T18:15:25.356Z,11.15
2017-11-24T18:17:52.960Z,21.30
2017-11-24T18:20:20.500Z,20.90
2017-11-24T18:22:48.812Z,17.03
2017-11-24T18:25:16.542Z,19.25
2017-11-24T18:27:44.505Z,21.90
2017-11-24T18:30:12.060Z,18.60
2017-11-24T18:32:40.416Z,11.17
2017-11-24T18:35:07.976Z,13.27
2017-11-24T18:37:35.558Z,12.10
2017-11-24T18:40:03.921Z,16.00
2017-11-24T18:42:32.266Z,19.10
2017-11-24T18:44:59.853Z,19.47
2017-11-24T18:47:27.434Z,15.73
2017-11-24T18:49:55.742Z,14.57
2017-11-24T18:52:23.293Z,17.27
2017-11-24T18:54:50.878Z,23.70
2017-11-24T18:57:18.889Z,15.88
2017-11-24T18:59:46.516Z,15.00
2017-11-24T19:02:14.682Z,29.48
2017-11-24T19:04:42.349Z,19.50
2017-11-24T19:07:10.090Z,18.77
2017-11-24T19:09:37.644Z,21.00
2017-11-24T19:12:05.403Z,23.87
2017-11-24T19:14:32.945Z,25.55
2017-11-24T19:17:00.521Z,20.93
2017-11-24T19:19:28.070Z,24.67
2017-11-24T19:21:55.604Z,25.00
2017-11-24T19:24:23.978Z,50.93
2017-11-24T19:26:52.284Z,24.80
2017-11-24T19:29:20.088Z,26.58
2017-11-24T19:31:47.664Z,27.03
2017-11-24T19:34:16.301Z,25.25
2017-11-24T19:36:43.853Z,23.83
2017-11-24T19:39:11.410Z,25.97
2017-11-24T19:41:39.016Z,27.00
2017-11-24T19:44:06.561Z,40.90
2017-11-24T19:46:34.149Z,25.50
2017-11-24T19:49:01.688Z,21.20
2017-11-24T19:51:29.229Z,25.07
2017-11-24T19:53:56.829Z,21.70
2017-11-24T19:56:25.174Z,24.17
2017-11-24T19:58:52.817Z,20.57
2017-11-24T20:01:20.392Z,20.20
2017-11-24T20:03:47.936Z,19.53
2017-11-24T20:06:16.346Z,28.73
2017-11-24T20:08:43.943Z,28.53
2017-11-24T20:11:11.552Z,31.20
2017-11-24T20:13:39.132Z,28.70
2017-11-24T20:16:07.488Z,27.83
2017-11-24T20:18:35.038Z,27.53
2017-11-24T20:21:02.625Z,25.83
2017-11-24T20:23:30.256Z,29.47
2017-11-24T20:25:57.794Z,26.73
2017-11-24T20:28:25.342Z,20.53
2017-11-24T20:30:53.201Z,15.50
2017-11-24T20:33:21.505Z,21.13
2017-11-24T20:35:49.102Z,23.13
2017-11-24T20:38:16.728Z,21.13
2017-11-24T20:40:56.034Z,20.17
2017-11-24T20:43:23.604Z,21.53
2017-11-24T20:45:51.137Z,21.83
2017-11-24T20:48:19.492Z,20.07
2017-11-24T20:50:47.136Z,16.73
2017-11-24T20:53:16.464Z,20.23
2017-11-24T20:55:44.042Z,20.27
2017-11-24T20:58:12.428Z,26.33
2017-11-24T21:00:40.749Z,18.20
2017-11-24T21:03:08.333Z,20.53
2017-11-24T21:05:35.941Z,20.07
2017-11-24T21:08:03.500Z,18.17
2017-11-24T21:10:31.038Z,16.93
2017-11-24T21:12:59.504Z,17.60
2017-11-24T21:15:27.895Z,17.50
2017-11-24T21:17:55.436Z,19.07
2017-11-24T21:20:23.004Z,20.97
2017-11-24T21:22:50.597Z,18.37
2017-11-24T21:25:18.139Z,19.13
2017-11-24T21:27:45.760Z,15.63
2017-11-24T21:30:14.652Z,15.57
2017-11-24T21:32:42.813Z,14.90
2017-11-24T21:35:10.401Z,15.47
2017-11-24T21:37:37.937Z,14.13
2017-11-24T21:40:05.495Z,14.43
2017-11-24T21:42:33.126Z,16.60
2017-11-24T21:45:00.671Z,18.00
2017-11-24T21:47:28.267Z,16.60
2017-11-24T21:49:55.872Z,15.97
2017-11-24T21:52:23.504Z,20.83
2017-11-24T21:54:51.877Z,20.40
2017-11-24T21:57:19.466Z,15.10
2017-11-24T21:59:47.778Z,18.07
2017-11-24T22:02:15.628Z,15.75
2017-11-24T22:04:43.233Z,14.77
2017-11-24T22:07:10.765Z,22.83
2017-11-24T22:09:38.308Z,26.47
2017-11-24T22:12:05.887Z,17.33
2017-11-24T22:14:33.425Z,19.05
2017-11-24T22:17:01.010Z,16.17
2017-11-24T22:19:28.649Z,19.05
2017-11-24T22:21:56.180Z,17.53
2017-11-24T22:24:23.714Z,22.80
2017-11-24T22:26:51.327Z,21.43
2017-11-24T22:29:19.846Z,19.63
2017-11-24T22:31:47.389Z,20.73
2017-11-24T22:34:17.452Z,19.53
2017-11-24T22:36:45.775Z,19.23
2017-11-24T22:39:24.417Z,16.70
2017-11-24T22:45:02.882Z,29.93
2017-11-24T22:47:30.554Z,24.70
2017-11-24T22:49:58.115Z,19.63
2017-11-24T22:52:25.744Z,23.43
2017-11-24T22:54:54.118Z,23.73
2017-11-24T22:57:21.696Z,16.27
2017-11-24T22:59:49.625Z,14.00
2017-11-24T23:02:17.465Z,19.70
2017-11-24T23:04:45.047Z,24.33
2017-11-24T23:07:13.611Z,13.13
2017-11-24T23:09:41.193Z,18.03
2017-11-24T23:12:08.825Z,15.73
2017-11-24T23:14:36.477Z,11.87
2017-11-24T23:17:04.051Z,15.13
2017-11-24T23:19:31.958Z,17.13
2017-11-24T23:22:00.446Z,18.20
2017-11-24T23:24:28.210Z,15.90
2017-11-24T23:26:55.997Z,14.90
2017-11-24T23:29:23.609Z,12.67
2017-11-24T23:31:51.341Z,15.63
2017-11-24T23:34:19.484Z,17.33
2017-11-24T23:36:47.851Z,11.70
2017-11-24T23:39:16.468Z,12.90
2017-11-24T23:41:43.995Z,12.53
2017-11-24T23:44:12.340Z,11.30
2017-11-24T23:46:39.882Z,14.00
2017-11-24T23:49:07.441Z,18.43
2017-11-24T23:51:35.008Z,10.63
2017-11-24T23:54:02.542Z,17.67
2017-11-24T23:56:30.077Z,11.17
2017-11-24T23:58:57.631Z,14.77
